x

Bw Pioneer Buoy - Walker Ridge 249 (42360) Wave Buoy

6:00pm - Sat 28th Feb 2015 All times are UTC.

  • Sig Wave height 6.9ft
  • Peak Period 7s
  • Wind
    31mph, 43mph gusts
  • Sea Temp 79°f
  • Air Temp 72°f
  • Sea Pressure 1023.5mb

More Historic Weather Station data

Upgrade to MSW Pro to gain access to the past 30 days of data for over 8000 Wavebouys and Weather Stations around the globe.

Join Pro

Comparision Forecast

View Surf forecast
   
Sat 02/28 6:00pm 7ft 7s 31 43 mph 1023.5mb 79f 72f
5:00pm 6.5ft 7s 36 47 mph 1024.3mb 79f 71f
4:00pm 7ft 7s 31 40 mph 1024.4mb 78f 72f
3:00pm 7ft 8s 31 45 mph 1024.2mb 78f 70f
2:00pm 7ft 8s 34 43 mph 1023.6mb 77f 69f
1:00pm 7ft 8s 34 43 mph 1023.2mb 77f 68f
12:00pm 7ft 8s 34 45 mph 1022.5mb 77f 68f
11:00am 7ft 8s 31 40 mph 1021.9mb 77f 70f
10:00am 6.5ft 8s 29 38 mph 1021.5mb 77f 70f
9:00am 6ft 8s 27 38 mph 1021.6mb 78f 69f
8:00am 6.5ft 8s 27 36 mph 1022.1mb 78f 70f
7:00am 6ft 8s 27 36 mph 1022.4mb 78f 70f
6:00am 5.5ft 8s 29 38 mph 1022.5mb 79f 70f
5:00am 6ft 8s 27 38 mph 1023.1mb 79f 69f
4:00am 5.5ft 8s 27 36 mph 1023.2mb 79f 69f
3:00am 5.5ft 8s 29 38 mph 1022.7mb 79f 69f
2:00am 5.5ft 8s 27 36 mph 1022.5mb 79f 69f
1:00am 5.5ft 8s 25 36 mph 1021.8mb 79f 68f
12:00am 6ft 8s 27 38 mph 1020.8mb 80f 67f
Fri 02/27 11:00pm 6ft 8s 29 38 mph 1020.2mb 80f 67f
10:00pm 6ft 8s 29 43 mph 1019.8mb 80f 66f
9:00pm 6ft 8s 31 40 mph 1019.6mb 80f 65f
8:00pm 6.5ft 7s 27 40 mph 1021.3mb 80f 65f
7:00pm 6.5ft 8s 29 43 mph 1021.5mb 80f 66f
6:00pm 6.5ft 8s 31 43 mph 1021.8mb 80f 66f
5:00pm 6.5ft 8s 31 40 mph 1023.2mb 80f 66f
4:00pm 6.5ft 7s 29 40 mph 1023.1mb 80f 66f
3:00pm 6.5ft 7s 29 43 mph 1022.7mb 80f 66f
2:00pm 6ft 7s 29 40 mph 1022.6mb 80f 66f
1:00pm 6ft 6s 31 40 mph 1021.6mb 80f 65f
12:00pm 5ft 7s 34 45 mph 1020.8mb 80f 65f
11:00am 5ft 7s 29 38 mph 1020.2mb 80f 65f
10:00am 4.5ft 6s 25 34 mph 1020.4mb 80f 64f
9:00am 5ft 6s 25 31 mph 1020mb 80f 63f
8:00am 5ft 6s 27 36 mph 1019.9mb 80f 62f
7:00am 4.5ft 6s 27 38 mph 1019.9mb 80f 62f
6:00am 5ft 6s 27 36 mph 1020.4mb 80f 62f
5:00am 4.5ft 6s 27 38 mph 1020.3mb 80f 62f
4:00am 4.5ft 5s 25 36 mph 1020.2mb 80f 62f
3:00am 4.5ft 6s 27 34 mph 1019.4mb 80f 62f
2:00am 5ft 6s 22 31 mph 1018.3mb 80f 61f
1:00am 4.5ft 6s 22 31 mph 1017.7mb 80f 62f
12:00am 5ft 6s 22 34 mph 1017.2mb 80f 61f
Thu 02/26 11:00pm 4.5ft 7s 25 36 mph 1016mb 80f 62f
10:00pm 4.5ft 7s 22 34 mph 1015.5mb 80f 62f
9:00pm 4.5ft 7s 22 31 mph 1015mb 80f 62f
8:00pm 4.5ft 7s 25 34 mph 1015mb 80f 62f
7:00pm 5ft 6s 20 29 mph 1015.2mb 80f 61f
6:00pm 4.5ft 7s 22 36 mph 1015.4mb 80f 61f
5:00pm 5ft 7s 22 31 mph 1015.5mb 80f 62f
4:00pm 5ft 7s 18 27 mph 1015.5mb 80f 61f
3:00pm 5ft 7s 18 29 mph 1014.7mb 80f 62f
2:00pm 5ft 8s 20 31 mph 1013.7mb 80f 61f
1:00pm 5ft 7s 18 27 mph 1012.8mb 80f 62f
12:00pm 5ft 7s 22 31 mph 1011.1mb 80f 62f
11:00am 5.5ft 8s 20 31 mph 1010.3mb 80f 63f
10:00am 6ft 7s 22 31 mph 1009.7mb 80f 64f
9:00am 6.5ft 7s 20 29 mph 1009.3mb 80f 64f
8:00am 7ft 7s 20 29 mph 1009.5mb 80f 64f
7:00am 7.5ft 8s 22 29 mph 1009.5mb 80f 65f
6:00am 9ft 8s 22 34 mph 1009.7mb 80f 66f
5:00am 8ft 7s 22 34 mph 1009.4mb 80f 66f
4:00am 8ft 6s 27 38 mph 1009.3mb 80f 67f
3:00am 7.5ft 7s 31 43 mph 1008.9mb 80f 67f
2:00am 9.5ft 7s 31 47 mph 1008.3mb 80f 66f
1:00am 9ft 8s 31 40 mph 1007.2mb 80f 68f
12:00am 7.5ft 8s 31 47 mph 1006.3mb 80f 72f
Wed 02/25 11:00pm 8.5ft 8s 31 43 mph 1005.5mb 80f 73f
10:00pm 9ft 7s 36 47 mph 1005mb 80f 73f
9:00pm 8ft 7s 38 51 mph 1004.8mb 80f 77f
8:00pm 7ft 7s 40 54 mph 1006mb 80f 76f
7:00pm 6ft 6s 40 54 mph 1006.9mb 80f 77f
6:00pm 5.5ft 6s 36 47 mph 1007.6mb 80f 77f
5:00pm 5ft 5s 34 47 mph 1008.8mb 80f 77f
4:00pm 4.5ft 5s 34 45 mph 1009.9mb 80f 76f
3:00pm 3.5ft 4s 31 40 mph 1009.4mb 80f 76f
2:00pm 3.5ft 3s 31 40 mph 1009.3mb 80f 76f
1:00pm 3ft 6s 31 40 mph 1009.3mb - 76f
12:00pm 3ft 6s 27 34 mph 1009.2mb 80f 76f
11:00am 3ft 6s 22 29 mph 1008.9mb 80f 75f
10:00am 3ft 6s 22 31 mph 1009.3mb 80f 75f
9:00am 3ft 6s 22 27 mph 1009.8mb 80f 73f
8:00am 3.5ft 6s 18 22 mph 1011.1mb 79f 72f
7:00am 3ft 7s 16 22 mph 1012.2mb 79f 71f
6:00am 3.5ft 6s 18 22 mph 1013.2mb 79f 70f
5:00am 3.5ft 6s 16 22 mph 1014.1mb 79f 69f
4:00am 4ft 7s 13 20 mph 1014.7mb 79f 68f
3:00am 4ft 7s 16 22 mph 1015.3mb 79f 69f
2:00am 4ft 7s 16 20 mph 1015.4mb 78f 69f
1:00am 4ft 7s 16 22 mph 1015.4mb 78f 68f
12:00am 4.5ft 7s 16 20 mph 1015.5mb 78f 67f
Tue 02/24 11:00pm 4.5ft 7s 18 27 mph 1015.8mb 78f 67f
10:00pm 4.5ft 7s 20 27 mph 1016.1mb 78f 67f
9:00pm 5ft 6s 20 27 mph 1016.6mb 78f 67f